Erin, Wisconsin
Current Conditions -  °F | °C
As of 10:35 AM on Friday 28 Nov 2014 (Local Time) from KRNH Reporting Station
Overcast Overcast  
Wind Chill:   Ceiling: 2300
Heat Index: 16°   Visibility: 10mi
Dew Point: 10°   Wind: 8mph
Humidity: 77%   Direction: 130°SE
Pressure: 29.99"   Gusts: NA
Location:  45.1804°N, 92.551°W
Report Text: KRNH 281635Z AUTO 13007KT 10SM OVC023 M09/M12 A2999 RMK AO2 T10911125
Loading
Personal Weather Stations






























Interactive Weather Map New forecast layout! Learn more

10-Day Weather Forecast

Advertisements
Track Severe Weather on mobile